createdAt,value
2018-07-17T00:00:16.438Z,56.3
2018-07-17T00:01:17.830Z,56.0
2018-07-17T00:02:19.244Z,56.2
2018-07-17T00:03:20.638Z,56.4
2018-07-17T00:04:22.034Z,57.3
2018-07-17T00:05:23.431Z,56.7
2018-07-17T00:06:24.831Z,57.3
2018-07-17T00:07:26.224Z,57.3
2018-07-17T00:08:27.618Z,57.5
2018-07-17T00:09:29.076Z,57.1
2018-07-17T00:10:30.409Z,57.3
2018-07-17T00:11:31.807Z,57.1
2018-07-17T00:12:33.212Z,56.7
2018-07-17T00:13:34.610Z,56.6
2018-07-17T00:14:36.002Z,56.5
2018-07-17T00:15:37.393Z,57.1
2018-07-17T00:16:38.792Z,57.1
2018-07-17T00:17:40.187Z,56.7
2018-07-17T00:18:41.598Z,57.4
2018-07-17T00:19:42.994Z,57.2
2018-07-17T00:20:44.391Z,57.3
2018-07-17T00:21:45.786Z,57.4
2018-07-17T00:22:47.183Z,57.3
2018-07-17T00:23:48.580Z,56.9
2018-07-17T00:24:49.972Z,57.1
2018-07-17T00:25:51.373Z,57.3
2018-07-17T00:26:52.770Z,57.4
2018-07-17T00:27:54.165Z,58.0
2018-07-17T00:28:55.563Z,58.3
2018-07-17T00:29:56.957Z,57.8
2018-07-17T00:30:58.352Z,58.6
2018-07-17T00:31:59.744Z,58.4
2018-07-17T00:33:01.141Z,58.5
2018-07-17T00:34:02.535Z,58.6
2018-07-17T00:35:03.932Z,59.3
2018-07-17T00:36:05.331Z,58.2
2018-07-17T00:37:06.723Z,58.7
2018-07-17T00:38:08.125Z,58.7
2018-07-17T00:39:09.521Z,58.8
2018-07-17T00:40:10.917Z,58.7
2018-07-17T00:41:12.313Z,58.7
2018-07-17T00:42:13.721Z,58.7
2018-07-17T00:43:15.120Z,59.4
2018-07-17T00:44:16.522Z,59.4
2018-07-17T00:45:17.915Z,59.4
2018-07-17T00:46:19.309Z,60.1
2018-07-17T00:47:20.717Z,59.5
2018-07-17T00:48:22.116Z,60.4
2018-07-17T00:49:23.521Z,60.1
2018-07-17T00:50:24.910Z,60.4
2018-07-17T00:51:26.306Z,60.4
2018-07-17T00:52:27.699Z,60.1
2018-07-17T00:53:29.093Z,60.3
2018-07-17T00:54:30.486Z,60.6
2018-07-17T00:55:31.888Z,60.7
2018-07-17T00:56:33.286Z,61.5
2018-07-17T00:57:34.679Z,61.3
2018-07-17T00:58:36.073Z,61.3
2018-07-17T00:59:37.464Z,60.6
2018-07-17T01:00:38.857Z,61.5
2018-07-17T01:01:40.249Z,60.7
2018-07-17T01:02:41.647Z,60.4
2018-07-17T01:03:43.042Z,60.2
2018-07-17T01:04:44.436Z,60.5
2018-07-17T01:05:45.835Z,60.5
2018-07-17T01:06:47.227Z,60.5
2018-07-17T01:07:48.622Z,60.7
2018-07-17T01:08:50.019Z,60.8
2018-07-17T01:09:51.431Z,61.0
2018-07-17T01:10:52.833Z,60.6
2018-07-17T01:11:54.235Z,61.0
2018-07-17T01:12:55.638Z,61.1
2018-07-17T01:13:57.039Z,61.1
2018-07-17T01:14:58.435Z,61.7
2018-07-17T01:15:59.832Z,61.4
2018-07-17T01:17:01.231Z,61.3
2018-07-17T01:18:02.628Z,61.5
2018-07-17T01:19:04.022Z,61.8
2018-07-17T01:20:05.413Z,61.5
2018-07-17T01:21:06.807Z,61.2
2018-07-17T01:22:08.205Z,61.5
2018-07-17T01:23:09.600Z,61.5
2018-07-17T01:24:11.050Z,61.8
2018-07-17T01:25:12.453Z,61.3
2018-07-17T01:26:13.848Z,61.0
2018-07-17T01:27:15.246Z,63.1
2018-07-17T01:28:16.655Z,63.4
2018-07-17T01:29:18.048Z,62.7
2018-07-17T01:30:19.448Z,62.5
2018-07-17T01:31:20.844Z,62.3
2018-07-17T01:32:22.246Z,62.3
2018-07-17T01:33:23.650Z,63.0
2018-07-17T01:34:25.037Z,62.9
2018-07-17T01:35:26.429Z,62.5
2018-07-17T01:36:27.827Z,62.4
2018-07-17T01:37:29.216Z,62.4
2018-07-17T01:38:30.678Z,62.5
2018-07-17T01:39:32.013Z,62.6
2018-07-17T01:40:33.406Z,63.0
2018-07-17T01:41:34.798Z,62.1
2018-07-17T01:42:36.194Z,61.7
2018-07-17T01:43:37.582Z,62.2
2018-07-17T01:44:38.983Z,62.0
2018-07-17T01:45:40.379Z,61.9
2018-07-17T01:46:41.775Z,62.3
2018-07-17T01:47:43.169Z,62.9
2018-07-17T01:48:44.560Z,62.3
2018-07-17T01:49:45.948Z,62.2
2018-07-17T01:50:47.344Z,62.7
2018-07-17T01:51:48.738Z,62.7
2018-07-17T01:52:50.135Z,62.7
2018-07-17T01:53:51.530Z,62.9
2018-07-17T01:54:52.922Z,62.7
2018-07-17T01:55:54.316Z,62.0
2018-07-17T01:56:55.716Z,63.7
2018-07-17T01:57:57.115Z,63.5
2018-07-17T01:58:58.507Z,63.4
2018-07-17T01:59:59.900Z,63.5
2018-07-17T02:01:01.294Z,62.6
2018-07-17T02:02:02.690Z,63.1
2018-07-17T02:03:04.081Z,62.5
2018-07-17T02:04:05.475Z,62.6
2018-07-17T02:05:06.866Z,62.9
2018-07-17T02:06:08.257Z,63.0
2018-07-17T02:07:09.656Z,62.8
2018-07-17T02:08:11.058Z,62.9
2018-07-17T02:09:12.451Z,62.5
2018-07-17T02:10:13.841Z,63.0
2018-07-17T02:11:15.235Z,62.7
2018-07-17T02:12:16.628Z,62.5
2018-07-17T02:13:18.028Z,62.5
2018-07-17T02:14:19.417Z,62.9
2018-07-17T02:15:20.817Z,62.4
2018-07-17T02:16:22.217Z,62.8
2018-07-17T02:17:23.609Z,62.4
2018-07-17T02:18:25.005Z,62.4
2018-07-17T02:19:26.398Z,62.6
2018-07-17T02:20:27.791Z,62.9
2018-07-17T02:21:29.187Z,62.5
2018-07-17T02:22:30.588Z,63.6
2018-07-17T02:23:31.976Z,63.6
2018-07-17T02:24:33.372Z,65.2
2018-07-17T02:25:34.772Z,65.2
2018-07-17T02:26:36.173Z,65.9
2018-07-17T02:27:37.566Z,65.9
2018-07-17T02:28:38.958Z,65.9
2018-07-17T02:29:40.357Z,65.5
2018-07-17T02:30:41.753Z,66.3
2018-07-17T02:31:43.151Z,65.8
2018-07-17T02:32:44.543Z,65.2
2018-07-17T02:33:45.935Z,65.5
2018-07-17T02:34:47.334Z,65.2
2018-07-17T02:35:48.730Z,65.5
2018-07-17T02:36:50.125Z,65.7
2018-07-17T02:37:51.516Z,65.9
2018-07-17T02:38:52.917Z,65.9
2018-07-17T02:39:54.312Z,65.9
2018-07-17T02:40:55.705Z,66.6
2018-07-17T02:41:57.130Z,66.7
2018-07-17T02:42:58.521Z,67.0
2018-07-17T02:43:59.916Z,66.7
2018-07-17T02:45:01.307Z,66.4
2018-07-17T02:46:02.699Z,66.4
2018-07-17T02:47:04.101Z,67.0
2018-07-17T02:48:05.484Z,66.3
2018-07-17T02:49:06.921Z,66.9
2018-07-17T02:50:08.334Z,66.8
2018-07-17T02:51:09.731Z,66.6
2018-07-17T02:52:11.123Z,67.1
2018-07-17T02:53:12.520Z,66.7
2018-07-17T02:54:13.907Z,66.7
2018-07-17T02:55:15.297Z,66.5
2018-07-17T02:56:16.696Z,66.8
2018-07-17T02:57:18.093Z,66.7
2018-07-17T02:58:19.498Z,66.9
2018-07-17T02:59:20.883Z,66.6
2018-07-17T03:00:22.279Z,66.5
2018-07-17T03:01:23.677Z,66.5
2018-07-17T03:02:25.072Z,66.5
2018-07-17T03:03:26.464Z,66.7
2018-07-17T03:04:27.868Z,66.2
2018-07-17T03:05:29.262Z,66.2
2018-07-17T03:06:30.656Z,66.5
2018-07-17T03:07:32.054Z,66.4
2018-07-17T03:08:33.451Z,66.6
2018-07-17T03:09:34.849Z,66.3
2018-07-17T03:10:36.246Z,66.7
2018-07-17T03:11:37.637Z,66.7
2018-07-17T03:12:39.033Z,66.5
2018-07-17T03:13:40.429Z,66.5
2018-07-17T03:14:41.824Z,66.5
2018-07-17T03:15:43.217Z,66.7
2018-07-17T03:16:44.612Z,66.7
2018-07-17T03:17:46.007Z,67.0
2018-07-17T03:18:47.399Z,67.6
2018-07-17T03:19:48.798Z,67.6
2018-07-17T03:20:50.190Z,67.9
2018-07-17T03:21:51.583Z,67.4
2018-07-17T03:22:52.980Z,67.2
2018-07-17T03:23:54.371Z,67.4
2018-07-17T03:24:55.771Z,67.6
2018-07-17T03:25:57.164Z,68.2
2018-07-17T03:26:58.569Z,68.5
2018-07-17T03:27:59.969Z,68.5
2018-07-17T03:29:01.362Z,68.0
2018-07-17T03:30:02.760Z,68.4
2018-07-17T03:31:04.164Z,68.8
2018-07-17T03:32:05.608Z,68.3
2018-07-17T03:33:07.014Z,69.1
2018-07-17T03:34:08.418Z,68.3
2018-07-17T03:35:09.818Z,69.0
2018-07-17T03:36:11.217Z,69.3
2018-07-17T03:37:12.611Z,69.6
2018-07-17T03:38:14.007Z,68.9
2018-07-17T03:39:15.410Z,69.5
2018-07-17T03:40:16.812Z,69.5
2018-07-17T03:41:18.209Z,69.5
2018-07-17T03:42:19.601Z,69.3
2018-07-17T03:43:20.994Z,69.4
2018-07-17T03:44:22.389Z,69.6
2018-07-17T03:45:23.785Z,69.3
2018-07-17T03:46:25.181Z,69.2
2018-07-17T03:47:26.576Z,69.3
2018-07-17T03:48:27.989Z,69.5
2018-07-17T03:49:29.420Z,69.5
2018-07-17T03:50:30.828Z,69.4
2018-07-17T03:51:32.226Z,70.0
2018-07-17T03:52:33.666Z,69.8
2018-07-17T03:53:35.068Z,69.5
2018-07-17T03:54:36.495Z,69.6
2018-07-17T03:55:37.896Z,69.5
2018-07-17T03:56:39.315Z,69.7
2018-07-17T03:57:40.705Z,69.5
2018-07-17T03:58:42.098Z,70.3
2018-07-17T03:59:43.500Z,70.1
2018-07-17T04:00:44.920Z,70.2
2018-07-17T04:01:46.318Z,70.4
2018-07-17T04:02:47.755Z,70.4
2018-07-17T04:03:49.109Z,70.2
2018-07-17T04:04:50.514Z,70.5
2018-07-17T04:05:51.905Z,70.4
2018-07-17T04:06:53.308Z,69.8
2018-07-17T04:07:54.707Z,70.0
2018-07-17T04:08:56.106Z,69.8
2018-07-17T04:09:57.504Z,69.5
2018-07-17T04:10:58.904Z,69.8
2018-07-17T04:12:00.317Z,69.9
2018-07-17T04:13:01.715Z,69.8
2018-07-17T04:14:03.132Z,69.5
2018-07-17T04:15:04.576Z,69.9
2018-07-17T04:16:05.976Z,69.6
2018-07-17T04:17:07.378Z,70.0
2018-07-17T04:18:08.962Z,70.4
2018-07-17T04:19:10.360Z,70.5
2018-07-17T04:20:11.758Z,70.4
2018-07-17T04:21:13.166Z,70.4
2018-07-17T04:22:14.565Z,70.8
2018-07-17T04:23:15.965Z,70.8
2018-07-17T04:24:17.366Z,70.5
2018-07-17T04:25:18.764Z,70.6
2018-07-17T04:26:20.171Z,71.4
2018-07-17T04:27:21.556Z,71.6
2018-07-17T04:28:22.954Z,71.6
2018-07-17T04:29:24.348Z,71.6
2018-07-17T04:30:25.748Z,71.4
2018-07-17T04:33:57.163Z,71.6
2018-07-17T04:34:58.558Z,71.1
2018-07-17T04:35:59.957Z,71.1
2018-07-17T04:37:01.384Z,71.5
2018-07-17T04:38:02.775Z,71.3
2018-07-17T04:39:04.172Z,71.7
2018-07-17T04:40:05.718Z,71.6
2018-07-17T04:41:07.117Z,71.3
2018-07-17T04:42:08.514Z,71.8
2018-07-17T04:43:09.909Z,71.5
2018-07-17T04:44:11.325Z,71.0
2018-07-17T04:45:12.716Z,71.5
2018-07-17T04:46:14.115Z,71.4
2018-07-17T04:47:15.516Z,71.4
2018-07-17T04:48:16.915Z,71.1
2018-07-17T04:49:18.309Z,71.6
2018-07-17T04:50:19.712Z,71.4
2018-07-17T04:51:21.101Z,71.5
2018-07-17T04:52:22.497Z,71.7
2018-07-17T04:53:23.913Z,70.9
2018-07-17T04:54:25.312Z,71.7
2018-07-17T04:55:26.707Z,71.1
2018-07-17T04:56:28.101Z,71.0
2018-07-17T04:57:29.500Z,71.0
2018-07-17T04:58:30.902Z,71.0
2018-07-17T04:59:32.310Z,70.8
2018-07-17T05:00:33.748Z,70.8
2018-07-17T05:01:35.294Z,70.7
2018-07-17T05:02:36.600Z,70.6
2018-07-17T05:03:38.006Z,70.7
2018-07-17T05:04:39.398Z,70.6
2018-07-17T05:05:40.798Z,70.4
2018-07-17T05:06:42.205Z,69.8
2018-07-17T05:07:43.600Z,69.9
2018-07-17T05:08:44.998Z,69.8
2018-07-17T05:09:46.393Z,69.6
2018-07-17T05:10:47.795Z,69.3
2018-07-17T05:11:49.204Z,69.0
2018-07-17T05:12:50.651Z,68.4
2018-07-17T05:13:52.473Z,68.7
2018-07-17T05:14:53.873Z,68.4
2018-07-17T05:15:55.317Z,68.2
2018-07-17T05:16:56.782Z,68.6
2018-07-17T05:17:58.185Z,68.1
2018-07-17T05:18:59.589Z,67.5
2018-07-17T05:20:01.029Z,67.4
2018-07-17T05:21:02.437Z,67.4
2018-07-17T05:22:03.829Z,67.2
2018-07-17T05:23:05.232Z,66.8
2018-07-17T05:24:06.631Z,67.9
2018-07-17T05:25:08.026Z,67.4
2018-07-17T05:26:09.426Z,67.5
2018-07-17T05:27:10.827Z,67.3
2018-07-17T05:28:12.230Z,66.7
2018-07-17T05:29:13.630Z,66.7
2018-07-17T05:30:15.034Z,66.6
2018-07-17T05:31:16.429Z,66.8
2018-07-17T05:32:17.823Z,66.8
2018-07-17T05:33:19.225Z,66.7
2018-07-17T05:34:20.625Z,66.4
2018-07-17T05:35:22.069Z,66.4
2018-07-17T05:36:23.488Z,66.4
2018-07-17T05:37:24.907Z,66.6
2018-07-17T05:38:26.306Z,66.6
2018-07-17T05:39:27.702Z,66.9
2018-07-17T05:40:29.097Z,66.1
2018-07-17T05:41:30.527Z,66.1
2018-07-17T05:42:31.983Z,65.5
2018-07-17T05:43:33.386Z,66.0
2018-07-17T05:44:34.788Z,65.5
2018-07-17T05:45:36.196Z,65.9
2018-07-17T05:46:37.694Z,65.8
2018-07-17T05:47:39.004Z,66.0
2018-07-17T05:48:40.719Z,66.1
2018-07-17T05:49:42.069Z,65.9
2018-07-17T05:50:43.470Z,65.9
2018-07-17T05:51:44.981Z,65.8
2018-07-17T05:52:46.397Z,65.6
2018-07-17T05:53:47.795Z,65.9
2018-07-17T05:54:49.191Z,65.6
2018-07-17T05:55:50.592Z,65.6
2018-07-17T05:56:52.199Z,66.0
2018-07-17T05:57:53.592Z,66.2
2018-07-17T05:58:54.988Z,65.8
2018-07-17T05:59:56.390Z,66.1
2018-07-17T06:00:57.789Z,65.6
2018-07-17T06:01:59.358Z,65.6
2018-07-17T06:03:00.981Z,66.1
2018-07-17T06:04:02.401Z,66.1
2018-07-17T06:05:03.806Z,66.1
2018-07-17T06:06:05.214Z,66.2
2018-07-17T06:07:06.618Z,65.8
2018-07-17T06:08:08.017Z,65.8
2018-07-17T06:09:09.417Z,65.9
2018-07-17T06:10:10.823Z,66.0
2018-07-17T06:11:12.212Z,66.1
2018-07-17T06:12:13.614Z,66.1
2018-07-17T06:13:15.014Z,65.9
2018-07-17T06:14:16.418Z,66.0
2018-07-17T06:15:17.813Z,66.1
2018-07-17T06:16:19.217Z,65.8
2018-07-17T06:17:20.621Z,66.4
2018-07-17T06:18:22.015Z,66.1
2018-07-17T06:19:23.411Z,66.1
2018-07-17T06:20:24.844Z,65.6
2018-07-17T06:21:26.211Z,66.2
2018-07-17T06:22:27.670Z,65.7
2018-07-17T06:23:29.089Z,65.8
2018-07-17T06:24:30.490Z,65.2
2018-07-17T06:25:31.891Z,65.3
2018-07-17T06:26:33.290Z,65.2
2018-07-17T06:27:34.687Z,65.3
2018-07-17T06:28:36.083Z,65.1
2018-07-17T06:29:37.484Z,65.4
2018-07-17T06:30:38.882Z,65.3
2018-07-17T06:31:40.279Z,65.5
2018-07-17T06:32:41.684Z,65.0
2018-07-17T06:33:43.089Z,65.1
2018-07-17T06:34:44.493Z,65.0
2018-07-17T06:35:45.893Z,64.3
2018-07-17T06:36:47.291Z,64.7
2018-07-17T06:37:48.686Z,64.6
2018-07-17T06:38:50.107Z,64.8
2018-07-17T06:39:51.523Z,64.5
2018-07-17T06:40:52.926Z,63.6
2018-07-17T06:41:54.329Z,63.8
2018-07-17T06:42:55.731Z,64.5
2018-07-17T06:43:57.135Z,63.9
2018-07-17T06:44:58.534Z,63.5
2018-07-17T06:45:59.934Z,63.8
2018-07-17T06:47:01.331Z,63.9
2018-07-17T06:48:02.734Z,63.4
2018-07-17T06:49:04.139Z,63.3
2018-07-17T06:50:05.540Z,63.4
2018-07-17T06:51:06.933Z,63.2
2018-07-17T06:52:08.332Z,63.6
2018-07-17T06:53:09.743Z,63.4
2018-07-17T06:54:11.143Z,63.6
2018-07-17T06:55:12.542Z,63.3
2018-07-17T06:56:13.939Z,63.0
2018-07-17T06:57:15.359Z,62.9
2018-07-17T06:58:16.742Z,63.0
2018-07-17T06:59:18.146Z,62.8
2018-07-17T07:00:19.554Z,62.0
2018-07-17T07:01:20.956Z,61.7
2018-07-17T07:02:22.355Z,61.3
2018-07-17T07:03:23.760Z,61.8
2018-07-17T07:04:25.156Z,61.5
2018-07-17T07:05:26.593Z,61.6
2018-07-17T07:06:27.994Z,61.0
2018-07-17T07:07:29.421Z,61.3
2018-07-17T07:08:30.823Z,60.9
2018-07-17T07:09:32.221Z,61.9
2018-07-17T07:10:33.626Z,61.5
2018-07-17T07:11:35.024Z,61.2
2018-07-17T07:12:36.427Z,60.2
2018-07-17T07:13:37.830Z,60.6
2018-07-17T07:14:39.228Z,60.7
2018-07-17T07:15:40.629Z,60.1
2018-07-17T07:16:42.032Z,60.3
2018-07-17T07:17:43.437Z,59.9
2018-07-17T07:18:44.834Z,59.3
2018-07-17T07:19:46.250Z,58.5
2018-07-17T07:20:47.644Z,59.1
2018-07-17T07:21:49.042Z,58.8
2018-07-17T07:22:50.468Z,58.9
2018-07-17T07:23:51.873Z,57.5
2018-07-17T07:24:53.275Z,57.4
2018-07-17T07:25:54.681Z,57.1
2018-07-17T07:26:56.080Z,57.3
2018-07-17T07:27:57.479Z,57.0
2018-07-17T07:28:58.878Z,57.6
2018-07-17T07:30:00.283Z,57.0
2018-07-17T07:31:01.692Z,56.4
2018-07-17T07:32:03.084Z,56.2
2018-07-17T07:33:04.487Z,56.4
2018-07-17T07:34:05.884Z,56.4
2018-07-17T07:35:07.282Z,55.8
2018-07-17T07:36:08.682Z,55.9
2018-07-17T07:37:10.112Z,55.0
2018-07-17T07:38:11.496Z,54.6
2018-07-17T07:39:12.901Z,54.9
2018-07-17T07:40:14.300Z,54.4
2018-07-17T07:41:15.695Z,54.3
2018-07-17T07:42:17.100Z,53.9
2018-07-17T07:43:18.502Z,53.3
2018-07-17T07:44:19.903Z,53.4
2018-07-17T07:45:21.302Z,52.9
2018-07-17T07:46:22.702Z,52.9
2018-07-17T07:47:24.179Z,53.0
2018-07-17T07:48:25.587Z,52.3
2018-07-17T07:49:26.980Z,52.7
2018-07-17T07:50:28.387Z,52.9
2018-07-17T07:51:29.788Z,53.1
2018-07-17T07:52:31.188Z,53.2
2018-07-17T07:53:32.594Z,53.1
2018-07-17T07:54:33.989Z,53.0
2018-07-17T07:55:35.423Z,53.3
2018-07-17T07:58:07.919Z,53.1
2018-07-17T07:59:10.433Z,53.0
2018-07-17T08:00:11.874Z,53.0
2018-07-17T08:01:13.361Z,53.3
2018-07-17T08:02:14.849Z,52.9
2018-07-17T08:03:16.267Z,53.5
2018-07-17T08:04:17.688Z,53.7
2018-07-17T08:05:19.090Z,53.3
2018-07-17T08:06:20.544Z,53.6
2018-07-17T08:07:21.984Z,53.6
2018-07-17T08:08:23.394Z,53.9
2018-07-17T08:09:24.877Z,53.0
2018-07-17T08:10:26.352Z,52.8
2018-07-17T08:11:27.844Z,52.6
2018-07-17T08:12:29.286Z,52.7
2018-07-17T08:13:30.724Z,52.3
2018-07-17T08:14:32.146Z,51.6
2018-07-17T08:15:33.595Z,52.7
2018-07-17T08:16:35.008Z,51.7
2018-07-17T08:17:36.465Z,52.7
2018-07-17T08:18:37.900Z,52.0
2018-07-17T08:19:39.307Z,52.1
2018-07-17T08:20:40.848Z,53.1
2018-07-17T08:21:42.278Z,52.0
2018-07-17T08:22:43.733Z,52.3
2018-07-17T08:23:45.176Z,52.7
2018-07-17T08:24:46.626Z,52.9
2018-07-17T08:25:48.014Z,52.5
2018-07-17T08:26:49.449Z,53.3
2018-07-17T08:27:50.873Z,52.9
2018-07-17T08:28:52.324Z,53.0
2018-07-17T08:29:53.746Z,52.8
2018-07-17T08:30:55.233Z,53.1
2018-07-17T08:32:37.258Z,52.3
2018-07-17T08:33:38.735Z,52.3
2018-07-17T08:34:40.156Z,51.5
2018-07-17T08:35:41.568Z,52.8
2018-07-17T08:36:42.958Z,51.7
2018-07-17T08:37:44.361Z,50.3
2018-07-17T08:38:45.763Z,50.0
2018-07-17T08:39:47.168Z,51.2
2018-07-17T08:40:48.572Z,50.1
2018-07-17T08:41:49.978Z,50.1
2018-07-17T08:42:51.373Z,49.8
2018-07-17T08:43:52.782Z,49.8
2018-07-17T08:44:54.171Z,49.5
2018-07-17T08:45:55.575Z,49.1
2018-07-17T08:46:56.978Z,48.5
2018-07-17T08:47:58.376Z,48.2
2018-07-17T08:48:59.784Z,48.4
2018-07-17T08:50:01.197Z,47.7
2018-07-17T08:51:02.593Z,48.3
2018-07-17T08:52:03.997Z,48.2
2018-07-17T08:53:05.399Z,48.2
2018-07-17T08:54:06.867Z,47.6
2018-07-17T08:55:08.204Z,48.1
2018-07-17T08:56:09.607Z,47.3
2018-07-17T08:57:11.015Z,46.8
2018-07-17T08:58:12.420Z,47.1
2018-07-17T08:59:13.822Z,46.3
2018-07-17T09:00:15.227Z,46.4
2018-07-17T09:01:16.630Z,46.2
2018-07-17T09:02:18.146Z,46.3
2018-07-17T09:03:19.545Z,46.3
2018-07-17T09:04:20.945Z,45.7
2018-07-17T09:05:22.352Z,46.1
2018-07-17T09:06:23.750Z,46.2
2018-07-17T09:07:25.154Z,46.2
2018-07-17T09:08:26.560Z,46.3
2018-07-17T09:09:27.964Z,46.2
2018-07-17T09:10:29.396Z,46.4
2018-07-17T09:11:30.805Z,46.5
2018-07-17T09:12:32.208Z,46.7
2018-07-17T09:13:33.608Z,46.2
2018-07-17T09:14:35.111Z,46.5
2018-07-17T09:15:36.516Z,46.8
2018-07-17T09:16:37.918Z,46.4
2018-07-17T09:17:39.317Z,46.0
2018-07-17T09:18:40.718Z,45.7
2018-07-17T09:19:42.119Z,45.5
2018-07-17T09:20:43.521Z,46.2
2018-07-17T09:21:44.926Z,46.1
2018-07-17T09:22:46.327Z,46.1
2018-07-17T09:23:47.728Z,46.2
2018-07-17T09:24:49.129Z,46.1
2018-07-17T09:25:50.532Z,46.1
2018-07-17T09:26:51.931Z,45.6
2018-07-17T09:27:53.470Z,45.9
2018-07-17T09:28:54.975Z,45.8
2018-07-17T09:29:56.382Z,45.5
2018-07-17T09:30:57.837Z,44.0
2018-07-17T09:31:59.234Z,43.7
2018-07-17T09:33:00.726Z,44.1
2018-07-17T09:34:02.137Z,44.3
2018-07-17T09:35:03.538Z,44.5
2018-07-17T09:36:04.941Z,44.9
2018-07-17T09:37:06.349Z,44.1
2018-07-17T09:38:07.744Z,44.3
2018-07-17T09:39:09.149Z,44.3
2018-07-17T09:40:10.551Z,44.1
2018-07-17T09:41:11.955Z,43.9
2018-07-17T09:42:13.368Z,43.7
2018-07-17T09:43:14.773Z,43.4
2018-07-17T09:44:16.245Z,43.1
2018-07-17T09:45:17.623Z,41.5
2018-07-17T09:46:19.024Z,41.8
2018-07-17T09:47:20.426Z,41.0
2018-07-17T09:48:21.830Z,40.9
2018-07-17T09:49:23.223Z,40.6
2018-07-17T09:50:24.631Z,40.5
2018-07-17T09:51:26.031Z,40.9
2018-07-17T09:52:27.438Z,40.8
2018-07-17T09:53:28.839Z,40.9
2018-07-17T09:54:30.275Z,41.1
2018-07-17T09:55:31.677Z,41.7
2018-07-17T09:56:33.080Z,41.2
2018-07-17T09:57:34.487Z,40.9
2018-07-17T09:58:35.902Z,40.9
2018-07-17T09:59:37.309Z,40.6
2018-07-17T10:00:38.759Z,39.6
2018-07-17T10:01:40.160Z,39.7
2018-07-17T10:02:41.561Z,38.9
2018-07-17T10:03:42.971Z,38.9
2018-07-17T10:04:44.392Z,38.4
2018-07-17T10:05:45.777Z,39.1
2018-07-17T10:06:47.181Z,39.2
2018-07-17T10:07:48.582Z,39.4
2018-07-17T10:08:49.987Z,39.9
2018-07-17T10:09:51.390Z,40.4
2018-07-17T10:10:52.792Z,41.0
2018-07-17T10:11:54.190Z,40.9
2018-07-17T10:12:55.600Z,40.3
2018-07-17T10:13:57.006Z,39.3
2018-07-17T10:14:58.405Z,39.4
2018-07-17T10:15:59.806Z,39.1
2018-07-17T10:17:01.213Z,39.5
2018-07-17T10:18:02.620Z,39.4
2018-07-17T10:19:04.021Z,38.9
2018-07-17T10:20:05.508Z,39.3
2018-07-17T10:21:06.828Z,39.6
2018-07-17T10:22:08.230Z,39.6
2018-07-17T10:23:09.633Z,39.0
2018-07-17T10:24:11.035Z,38.9
2018-07-17T10:25:12.441Z,39.6
2018-07-17T10:26:13.863Z,39.0
2018-07-17T10:27:15.251Z,38.2
2018-07-17T10:28:16.654Z,38.0
2018-07-17T10:29:18.063Z,38.2
2018-07-17T10:30:19.462Z,38.1
2018-07-17T10:31:20.869Z,37.5
2018-07-17T10:32:22.276Z,36.7
2018-07-17T10:33:23.680Z,36.7
2018-07-17T10:34:25.180Z,37.3
2018-07-17T10:35:26.587Z,38.2
2018-07-17T10:36:27.991Z,38.3
2018-07-17T10:37:29.399Z,37.9
2018-07-17T10:38:30.849Z,37.6
2018-07-17T10:39:32.209Z,37.6
2018-07-17T10:40:33.608Z,37.2
2018-07-17T10:41:35.015Z,37.3
2018-07-17T10:42:36.417Z,36.8
2018-07-17T10:43:37.819Z,36.2
2018-07-17T10:44:39.227Z,35.2
2018-07-17T10:45:40.633Z,36.1
2018-07-17T10:46:42.093Z,36.3
2018-07-17T10:47:43.499Z,36.8
2018-07-17T10:48:44.903Z,36.2
2018-07-17T10:49:46.309Z,35.4
2018-07-17T10:50:47.715Z,35.0
2018-07-17T10:51:49.118Z,35.1
2018-07-17T10:52:50.525Z,35.2
2018-07-17T10:53:51.939Z,34.9
2018-07-17T10:54:53.340Z,34.7
2018-07-17T10:55:54.742Z,34.6
2018-07-17T10:56:56.151Z,34.2
2018-07-17T10:57:57.562Z,35.0
2018-07-17T10:58:58.969Z,35.1
2018-07-17T11:00:00.372Z,35.4
2018-07-17T11:01:01.811Z,35.5
2018-07-17T11:02:03.193Z,35.7
2018-07-17T11:03:04.602Z,36.0
2018-07-17T11:04:06.004Z,37.1
2018-07-17T11:05:07.406Z,36.6
2018-07-17T11:06:08.812Z,35.7
2018-07-17T11:07:10.237Z,34.9
2018-07-17T11:08:11.644Z,35.3
2018-07-17T11:09:13.050Z,34.8
2018-07-17T11:10:14.459Z,33.9
2018-07-17T11:11:15.863Z,34.2
2018-07-17T11:12:17.269Z,33.7
2018-07-17T11:13:18.676Z,33.9
2018-07-17T11:14:20.152Z,34.1
2018-07-17T11:15:21.631Z,35.0
2018-07-17T11:16:23.036Z,35.0
2018-07-17T11:17:24.443Z,34.5
2018-07-17T11:18:25.849Z,34.2
2018-07-17T11:19:27.254Z,34.0
2018-07-17T11:20:28.661Z,34.1
2018-07-17T11:21:30.071Z,34.7
2018-07-17T11:22:31.479Z,34.1
2018-07-17T11:23:32.887Z,34.2
2018-07-17T11:24:34.299Z,34.1
2018-07-17T11:25:35.702Z,34.1
2018-07-17T11:26:37.107Z,33.7
2018-07-17T11:27:38.518Z,33.6
2018-07-17T11:28:39.957Z,33.3
2018-07-17T11:29:41.362Z,32.8
2018-07-17T11:30:42.771Z,33.2
2018-07-17T11:31:44.179Z,33.7
2018-07-17T11:32:45.589Z,33.1
2018-07-17T11:33:46.994Z,33.9
2018-07-17T11:34:48.401Z,34.1
2018-07-17T11:35:49.808Z,34.1
2018-07-17T11:36:51.217Z,33.7
2018-07-17T11:37:52.622Z,34.3
2018-07-17T11:38:54.035Z,34.4
2018-07-17T11:39:55.451Z,34.8
2018-07-17T11:40:56.868Z,34.5
2018-07-17T11:41:58.267Z,34.2
2018-07-17T11:42:59.674Z,34.2
2018-07-17T11:44:01.086Z,34.7
2018-07-17T11:45:02.497Z,34.1
2018-07-17T11:46:03.908Z,34.1
2018-07-17T11:47:05.310Z,34.2
2018-07-17T11:48:06.721Z,33.9
2018-07-17T11:49:08.127Z,33.8
2018-07-17T11:50:09.533Z,32.7
2018-07-17T11:51:10.941Z,33.8
2018-07-17T11:52:12.347Z,34.0
2018-07-17T11:53:13.802Z,33.9
2018-07-17T11:54:15.205Z,34.1
2018-07-17T11:55:16.628Z,33.2
2018-07-17T11:56:18.033Z,33.6
2018-07-17T11:57:19.440Z,34.2
2018-07-17T11:58:20.850Z,34.4
2018-07-17T11:59:22.406Z,34.0
2018-07-17T12:00:23.674Z,34.2
2018-07-17T12:01:25.083Z,33.3
2018-07-17T12:02:26.509Z,33.3
2018-07-17T12:03:27.918Z,32.8
2018-07-17T12:04:29.322Z,32.3
2018-07-17T12:05:30.792Z,32.2
2018-07-17T12:06:32.133Z,33.3
2018-07-17T12:07:33.546Z,33.9
2018-07-17T12:08:34.951Z,34.2
2018-07-17T12:09:36.355Z,33.9
2018-07-17T12:10:37.759Z,34.1
2018-07-17T12:11:39.171Z,34.6
2018-07-17T12:12:40.620Z,33.9
2018-07-17T12:13:41.990Z,34.1
2018-07-17T12:14:43.397Z,34.1
2018-07-17T12:15:44.804Z,33.3
2018-07-17T12:16:46.213Z,32.2
2018-07-17T12:17:47.623Z,32.5
2018-07-17T12:18:49.028Z,32.1
2018-07-17T12:19:50.481Z,32.6
2018-07-17T12:20:51.806Z,33.0
2018-07-17T12:21:53.215Z,33.0
2018-07-17T12:22:54.619Z,32.2
2018-07-17T12:23:56.026Z,32.0
2018-07-17T12:24:57.463Z,32.6
2018-07-17T12:25:58.840Z,33.1
2018-07-17T12:27:00.245Z,33.2
2018-07-17T12:28:01.708Z,32.2
2018-07-17T12:29:03.070Z,31.0
2018-07-17T12:30:04.473Z,31.5
2018-07-17T12:31:05.881Z,32.3
2018-07-17T12:32:07.293Z,32.4
2018-07-17T12:33:08.712Z,34.0
2018-07-17T12:34:10.137Z,34.2
2018-07-17T12:35:11.573Z,33.8
2018-07-17T12:36:12.979Z,34.0
2018-07-17T12:37:14.385Z,34.3
2018-07-17T12:38:15.794Z,33.7
2018-07-17T12:39:17.198Z,33.6
2018-07-17T12:40:18.601Z,34.7
2018-07-17T12:41:20.011Z,35.7
2018-07-17T12:42:21.415Z,36.0
2018-07-17T12:43:22.821Z,35.7
2018-07-17T12:44:24.241Z,35.8
2018-07-17T12:45:25.631Z,35.3
2018-07-17T12:46:27.038Z,35.1
2018-07-17T12:47:28.443Z,35.4
2018-07-17T12:48:29.849Z,34.4
2018-07-17T12:49:31.260Z,33.6
2018-07-17T12:50:32.670Z,32.2
2018-07-17T12:51:34.076Z,32.3
2018-07-17T12:52:35.482Z,32.5
2018-07-17T12:53:36.890Z,32.2
2018-07-17T12:54:38.291Z,31.0
2018-07-17T12:55:39.704Z,31.7
2018-07-17T12:56:41.110Z,31.8
2018-07-17T12:57:42.521Z,32.8
2018-07-17T12:58:43.923Z,31.8
2018-07-17T12:59:45.330Z,32.3
2018-07-17T13:00:46.734Z,32.6
2018-07-17T13:01:48.141Z,32.1
2018-07-17T13:02:49.640Z,33.1
2018-07-17T13:03:50.959Z,33.1
2018-07-17T13:04:52.365Z,33.2
2018-07-17T13:05:53.770Z,33.1
2018-07-17T13:06:55.178Z,33.1
2018-07-17T13:07:56.598Z,33.5
2018-07-17T13:08:57.990Z,34.2
2018-07-17T13:09:59.396Z,35.4
2018-07-17T13:11:00.825Z,35.4
2018-07-17T13:12:02.208Z,35.0
2018-07-17T13:13:03.624Z,34.7
2018-07-17T13:14:05.028Z,34.7
2018-07-17T13:15:06.457Z,35.0
2018-07-17T13:16:07.871Z,34.2
2018-07-17T13:17:09.266Z,34.0
2018-07-17T13:18:10.673Z,34.5
2018-07-17T13:19:12.081Z,34.3
2018-07-17T13:20:13.485Z,33.5
2018-07-17T13:21:14.890Z,33.6
2018-07-17T13:22:16.298Z,33.6
2018-07-17T13:23:17.705Z,33.6
2018-07-17T13:24:19.108Z,34.0
2018-07-17T13:25:20.509Z,34.1
2018-07-17T13:26:21.920Z,33.8
2018-07-17T13:27:23.322Z,32.9
2018-07-17T13:28:24.737Z,33.3
2018-07-17T13:29:26.133Z,33.3
2018-07-17T13:30:27.543Z,33.3
2018-07-17T13:31:28.948Z,33.9
2018-07-17T13:32:30.352Z,34.1
2018-07-17T13:33:31.763Z,34.0
2018-07-17T13:34:33.173Z,33.4
2018-07-17T13:35:34.579Z,33.7
2018-07-17T13:36:35.982Z,34.3
2018-07-17T13:37:37.388Z,34.8
2018-07-17T13:38:38.789Z,35.8
2018-07-17T13:39:40.202Z,35.5
2018-07-17T13:40:41.609Z,35.5
2018-07-17T13:41:43.009Z,35.4